createdAt,value
2023-04-02T00:04:44.602Z,0.95
2023-04-02T00:09:48.280Z,1.10
2023-04-02T00:14:58.021Z,0.93
2023-04-02T00:20:07.778Z,1.00
2023-04-02T00:25:15.688Z,0.90
2023-04-02T00:30:20.573Z,0.93
2023-04-02T00:35:29.760Z,1.00
2023-04-02T00:40:33.794Z,0.95
2023-04-02T00:45:40.542Z,1.08
2023-04-02T00:50:47.082Z,0.90
2023-04-02T00:55:51.034Z,1.00
2023-04-02T01:00:56.696Z,1.05
2023-04-02T01:06:10.744Z,0.80
2023-04-02T01:11:39.960Z,1.00
2023-04-02T01:16:54.507Z,0.90
2023-04-02T01:22:01.887Z,1.00
2023-04-02T01:27:09.166Z,1.00
2023-04-02T01:32:17.852Z,1.00
2023-04-02T01:37:38.157Z,0.93
2023-04-02T01:42:54.232Z,0.90
2023-04-02T01:47:59.846Z,0.85
2023-04-02T01:53:08.284Z,0.90
2023-04-02T01:58:14.927Z,0.90
2023-04-02T02:03:21.921Z,0.88
2023-04-02T02:08:38.639Z,0.90
2023-04-02T02:18:57.088Z,0.88
2023-04-02T02:24:01.595Z,1.17
2023-04-02T02:29:08.919Z,0.90
2023-04-02T02:34:21.929Z,1.00
2023-04-02T02:39:32.814Z,1.08
2023-04-02T02:44:43.308Z,1.00
2023-04-02T02:49:54.638Z,1.10
2023-04-02T02:55:04.421Z,0.95
2023-04-02T03:00:20.357Z,1.00
2023-04-02T03:05:29.175Z,1.58
2023-04-02T03:10:48.674Z,1.00
2023-04-02T03:16:03.285Z,1.00
2023-04-02T03:21:24.134Z,1.00
2023-04-02T03:26:36.089Z,1.00
2023-04-02T03:31:45.429Z,0.90
2023-04-02T03:36:58.483Z,1.10
2023-04-02T03:42:10.296Z,0.90
2023-04-02T03:47:21.238Z,0.95
2023-04-02T03:52:28.847Z,1.00
2023-04-02T03:57:43.171Z,1.00
2023-04-02T04:02:52.804Z,1.00
2023-04-02T04:08:05.137Z,0.90
2023-04-02T04:13:14.969Z,1.05
2023-04-02T04:18:34.677Z,1.10
2023-04-02T04:23:50.373Z,1.00
2023-04-02T04:29:09.802Z,1.00
2023-04-02T04:34:20.087Z,0.90
2023-04-02T04:39:34.832Z,0.90
2023-04-02T04:44:47.996Z,1.00
2023-04-02T04:49:57.666Z,0.90
2023-04-02T04:55:02.773Z,0.80
2023-04-02T05:00:22.211Z,1.10
2023-04-02T05:05:32.415Z,1.00
2023-04-02T05:10:47.281Z,0.90
2023-04-02T05:16:04.053Z,1.00
2023-04-02T05:21:19.380Z,1.00
2023-04-02T05:26:32.010Z,1.10
2023-04-02T05:31:46.470Z,0.85
2023-04-02T05:36:50.546Z,0.80
2023-04-02T05:42:05.096Z,0.85
2023-04-02T05:47:32.757Z,0.90
2023-04-02T05:52:48.771Z,1.00
2023-04-02T05:58:21.445Z,0.90
2023-04-02T06:03:37.187Z,0.90
2023-04-02T06:08:48.709Z,0.93
2023-04-02T06:13:54.401Z,0.95
2023-04-02T06:19:00.619Z,0.90
2023-04-02T06:24:08.247Z,0.80
2023-04-02T06:29:24.774Z,1.00
2023-04-02T06:34:33.643Z,0.90
2023-04-02T06:39:46.015Z,1.00
2023-04-02T06:44:54.092Z,0.93
2023-04-02T06:50:22.359Z,0.88
2023-04-02T06:55:40.547Z,0.90
2023-04-02T07:00:48.110Z,0.82
2023-04-02T07:06:01.034Z,0.90
2023-04-02T07:11:05.201Z,0.90
2023-04-02T07:16:18.570Z,0.90
2023-04-02T07:21:22.390Z,1.00
2023-04-02T07:26:28.872Z,0.77
2023-04-02T07:31:33.815Z,0.90
2023-04-02T07:36:37.287Z,0.90
2023-04-02T07:41:54.224Z,0.80
2023-04-02T07:46:59.191Z,0.90
2023-04-02T07:52:02.687Z,0.82
2023-04-02T07:57:06.211Z,0.90
2023-04-02T08:02:21.094Z,0.80
2023-04-02T08:07:24.631Z,0.80
2023-04-02T08:12:28.042Z,0.80
2023-04-02T08:17:33.725Z,0.93
2023-04-02T08:22:37.178Z,1.00
2023-04-02T08:27:41.117Z,0.90
2023-04-02T08:32:46.316Z,0.80
2023-04-02T08:37:49.861Z,1.10
2023-04-02T08:43:21.750Z,0.80
2023-04-02T08:48:28.671Z,0.90
2023-04-02T08:53:37.136Z,0.90
2023-04-02T08:58:43.833Z,0.85
2023-04-02T09:03:52.205Z,0.80
2023-04-02T09:08:57.961Z,0.88
2023-04-02T09:14:07.189Z,0.80
2023-04-02T09:19:23.717Z,0.80
2023-04-02T09:24:27.329Z,1.00
2023-04-02T09:29:45.185Z,0.80
2023-04-02T09:34:50.057Z,1.00
2023-04-02T09:39:54.912Z,0.93
2023-04-02T09:45:22.122Z,1.00
2023-04-02T09:50:35.023Z,0.90
2023-04-02T09:55:38.886Z,0.98
2023-04-02T10:00:52.170Z,0.80
2023-04-02T10:06:16.395Z,0.93
2023-04-02T10:11:36.341Z,1.00
2023-04-02T10:16:54.593Z,0.90
2023-04-02T10:22:03.184Z,0.82
2023-04-02T10:27:22.856Z,0.90
2023-04-02T10:32:33.459Z,0.98
2023-04-02T10:38:25.102Z,0.90
2023-04-02T10:44:24.077Z,0.90
2023-04-02T10:49:42.432Z,1.00
2023-04-02T10:54:51.674Z,1.00
2023-04-02T11:00:01.819Z,1.10
2023-04-02T11:05:18.253Z,0.90
2023-04-02T11:10:23.670Z,0.90
2023-04-02T11:15:27.529Z,0.82
2023-04-02T11:20:58.726Z,1.00
2023-04-02T11:26:47.445Z,0.90
2023-04-02T11:32:14.284Z,1.10
2023-04-02T11:37:38.244Z,0.93
2023-04-02T11:42:46.110Z,0.90
2023-04-02T11:48:29.169Z,0.90
2023-04-02T11:53:35.839Z,1.00
2023-04-02T11:59:08.745Z,0.95
2023-04-02T12:04:38.646Z,0.93
2023-04-02T12:09:48.554Z,0.98
2023-04-02T12:14:54.964Z,0.90
2023-04-02T12:20:05.050Z,1.00
2023-04-02T12:25:29.383Z,0.90
2023-04-02T12:30:34.871Z,1.00
2023-04-02T12:35:46.547Z,1.00
2023-04-02T12:40:54.980Z,1.00
2023-04-02T12:46:03.375Z,1.20
2023-04-02T12:51:07.241Z,1.02
2023-04-02T12:56:22.490Z,0.90
2023-04-02T13:01:31.497Z,1.20
2023-04-02T13:06:36.545Z,1.02
2023-04-02T13:11:42.195Z,1.10
2023-04-02T13:16:47.746Z,1.10
2023-04-02T13:21:52.552Z,1.10
2023-04-02T13:26:58.909Z,0.90
2023-04-02T13:32:08.789Z,0.98
2023-04-02T13:37:13.549Z,1.13
2023-04-02T13:42:18.882Z,0.95
2023-04-02T13:47:23.682Z,1.10
2023-04-02T13:52:27.310Z,1.00
2023-04-02T13:57:31.026Z,1.10
2023-04-02T14:02:36.047Z,1.10
2023-04-02T14:07:58.609Z,1.00
2023-04-02T14:13:19.679Z,1.15
2023-04-02T14:18:44.511Z,1.10
2023-04-02T14:24:13.519Z,1.15
2023-04-02T14:29:28.873Z,1.10
2023-04-02T14:34:44.155Z,1.20
2023-04-02T14:40:03.747Z,1.10
2023-04-02T14:45:15.646Z,1.10
2023-04-02T14:50:28.037Z,1.20
2023-04-02T14:55:38.979Z,1.17
2023-04-02T15:00:51.838Z,1.10
2023-04-02T15:06:04.038Z,1.27
2023-04-02T15:11:13.550Z,1.00
2023-04-02T15:16:22.663Z,1.13
2023-04-02T15:22:14.722Z,1.10
2023-04-02T15:27:56.510Z,1.00
2023-04-02T15:33:45.683Z,1.10
2023-04-02T15:38:58.094Z,1.27
2023-04-02T15:44:10.810Z,1.02
2023-04-02T15:49:38.038Z,1.10
2023-04-02T15:55:18.329Z,1.10
2023-04-02T16:00:31.655Z,1.17
2023-04-02T16:05:44.630Z,1.10
2023-04-02T16:10:49.399Z,1.15
2023-04-02T16:16:03.445Z,1.13
2023-04-02T16:21:08.197Z,1.20
2023-04-02T16:26:40.526Z,1.30
2023-04-02T16:31:56.174Z,1.30
2023-04-02T16:37:13.287Z,1.20
2023-04-02T16:42:33.491Z,1.13
2023-04-02T16:48:01.833Z,1.13
2023-04-02T16:53:24.957Z,1.40
2023-04-02T16:58:46.401Z,1.00
2023-04-02T17:04:12.154Z,1.20
2023-04-02T17:09:20.321Z,1.10
2023-04-02T17:14:36.878Z,1.38
2023-04-02T17:19:43.138Z,1.30
2023-04-02T17:24:51.826Z,1.30
2023-04-02T17:30:05.376Z,1.20
2023-04-02T17:35:22.924Z,1.30
2023-04-02T17:40:35.194Z,1.13
2023-04-02T17:45:48.104Z,1.30
2023-04-02T17:51:14.917Z,1.30
2023-04-02T17:56:40.911Z,1.20
2023-04-02T18:01:54.765Z,1.20
2023-04-02T18:07:21.449Z,1.25
2023-04-02T18:12:45.839Z,1.30
2023-04-02T18:17:55.290Z,1.27
2023-04-02T18:23:09.871Z,1.30
2023-04-02T18:28:41.068Z,1.23
2023-04-02T18:34:54.079Z,1.30
2023-04-02T18:40:23.436Z,1.30
2023-04-02T18:45:39.210Z,1.40
2023-04-02T18:50:46.815Z,1.13
2023-04-02T18:55:57.650Z,1.27
2023-04-02T19:01:02.194Z,1.20
2023-04-02T19:06:12.737Z,1.45
2023-04-02T19:11:21.888Z,1.48
2023-04-02T19:16:53.341Z,1.27
2023-04-02T19:22:29.495Z,1.23
2023-04-02T19:27:47.466Z,1.40
2023-04-02T19:38:16.121Z,1.27
2023-04-02T19:43:19.835Z,1.20
2023-04-02T19:48:27.210Z,1.30
2023-04-02T19:53:32.018Z,1.30
2023-04-02T19:58:37.218Z,1.40
2023-04-02T20:03:40.667Z,1.27
2023-04-02T20:08:46.496Z,1.42
2023-04-02T20:13:50.212Z,1.20
2023-04-02T20:18:53.674Z,1.45
2023-04-02T20:23:58.472Z,1.30
2023-04-02T20:29:01.916Z,1.27
2023-04-02T20:34:06.782Z,1.30
2023-04-02T20:39:17.917Z,1.50
2023-04-02T20:44:21.450Z,1.20
2023-04-02T20:49:24.875Z,1.30
2023-04-02T20:54:29.656Z,1.30
2023-04-02T20:59:33.067Z,1.20
2023-04-02T21:04:36.504Z,1.10
2023-04-02T21:09:41.444Z,1.35
2023-04-02T21:14:44.817Z,1.30
2023-04-02T21:19:48.210Z,1.30
2023-04-02T21:24:52.983Z,1.30
2023-04-02T21:29:56.634Z,1.30
2023-04-02T21:35:00.245Z,1.20
2023-04-02T21:40:06.384Z,1.20
2023-04-02T21:45:11.003Z,1.50
2023-04-02T21:50:14.460Z,1.35
2023-04-02T21:55:19.331Z,1.40
2023-04-02T22:00:23.021Z,1.27
2023-04-02T22:05:28.942Z,1.40
2023-04-02T22:10:33.940Z,1.40
2023-04-02T22:15:37.517Z,1.30
2023-04-02T22:20:41.504Z,1.20
2023-04-02T22:25:46.270Z,1.30
2023-04-02T22:30:50.483Z,1.20
2023-04-02T22:35:54.077Z,1.23
2023-04-02T22:41:08.423Z,1.30
2023-04-02T22:46:14.340Z,1.10
2023-04-02T22:51:21.116Z,1.30
2023-04-02T22:56:31.713Z,1.30
2023-04-02T23:01:37.449Z,1.38
2023-04-02T23:06:40.888Z,1.20
2023-04-02T23:11:45.827Z,1.20
2023-04-02T23:16:49.258Z,1.23
2023-04-02T23:21:52.763Z,1.40
2023-04-02T23:26:57.702Z,1.20
2023-04-02T23:32:01.097Z,1.30
2023-04-02T23:37:04.538Z,1.10
2023-04-02T23:42:11.887Z,1.25
2023-04-02T23:47:15.451Z,1.40
2023-04-02T23:52:19.038Z,1.30
2023-04-02T23:57:23.891Z,1.40
